Time;durP1;ratioP1;P1;durP2;ratioP2;P2;SDS_P1;SDS_P2;PMS_P1;PMS_P2;Temp;Humidity;BMP_temperature;BMP_pressure;BME280_temperature;BME280_humidity;BME280_pressure;Samples;Min_cycle;Max_cycle;Signal;HPM_P1;HPM_P2
2022/08/18 00:00:23;;;;;;;38.40;18.80;;;;;;;20.27;100.00;99679.80;104914;1271;72198;-67
2022/08/18 00:03:11;;;;;;;30.80;16.10;;;;;;;20.30;100.00;99681.94;104890;1271;61270;-66
2022/08/18 00:06:19;;;;;;;26.70;16.10;;;;;;;20.30;100.00;99688.92;104896;1271;59408;-66
2022/08/18 00:09:09;;;;;;;27.50;15.50;;;;;;;20.31;100.00;99688.25;104867;1271;73457;-67
2022/08/18 00:11:57;;;;;;;30.30;16.60;;;;;;;20.33;100.00;99684.47;104795;1271;68254;-67
2022/08/18 00:14:46;;;;;;;25.60;15.10;;;;;;;20.34;100.00;99680.36;105149;1271;72292;-67
2022/08/18 00:17:35;;;;;;;26.40;16.10;;;;;;;20.35;100.00;99679.88;104728;1271;59419;-67
2022/08/18 00:20:24;;;;;;;31.10;16.50;;;;;;;20.38;100.00;99685.27;104885;1270;62402;-67
2022/08/18 00:23:12;;;;;;;30.90;17.10;;;;;;;20.40;100.00;99685.80;104766;1271;73940;-66
2022/08/18 00:26:02;;;;;;;27.60;15.60;;;;;;;20.43;100.00;99679.46;104874;1271;70360;-66
2022/08/18 00:28:50;;;;;;;30.60;16.90;;;;;;;20.44;100.00;99675.81;105010;1271;74395;-66
2022/08/18 00:31:38;;;;;;;28.10;15.50;;;;;;;20.47;100.00;99678.96;104905;1271;61197;-67
2022/08/18 00:34:27;;;;;;;30.50;16.80;;;;;;;20.47;100.00;99678.90;105056;1271;60262;-66
2022/08/18 00:37:21;;;;;;;29.50;16.30;;;;;;;20.43;100.00;99680.66;105094;1271;71068;-67
2022/08/18 00:40:20;;;;;;;27.10;16.30;;;;;;;20.41;100.00;99682.14;105009;1271;68482;-67
2022/08/18 00:43:19;;;;;;;25.40;15.90;;;;;;;20.38;100.00;99680.16;105090;1271;73318;-64
2022/08/18 00:46:14;;;;;;;24.70;15.60;;;;;;;20.33;100.00;99676.48;104925;1271;59355;-66
2022/08/18 00:49:04;;;;;;;22.70;15.00;;;;;;;20.30;100.00;99676.36;104883;1271;59796;-65
2022/08/18 00:51:53;;;;;;;23.50;15.20;;;;;;;20.24;100.00;99678.64;104800;1274;72770;-65
2022/08/18 00:54:43;;;;;;;23.20;15.20;;;;;;;20.20;100.00;99686.75;104839;1271;69055;-66
2022/08/18 00:57:32;;;;;;;22.50;14.30;;;;;;;20.18;100.00;99679.83;105113;1271;72894;-65
2022/08/18 01:00:21;;;;;;;25.20;14.60;;;;;;;20.17;100.00;99681.36;104864;1271;59793;-65
2022/08/18 01:03:14;;;;;;;22.00;14.50;;;;;;;20.16;100.00;99678.94;105005;1273;60414;-70
2022/08/18 01:06:26;;;;;;;21.50;13.90;;;;;;;20.14;100.00;99682.04;105115;1271;71632;-66
2022/08/18 01:09:16;;;;;;;24.50;15.00;;;;;;;20.14;100.00;99681.53;105019;1271;68600;-67
2022/08/18 01:12:08;;;;;;;25.10;15.30;;;;;;;20.12;100.00;99677.15;104820;1271;74408;-65
2022/08/18 01:15:19;;;;;;;23.10;14.90;;;;;;;20.13;100.00;99676.48;104833;1271;59645;-66
2022/08/18 01:27:44;;;;;;;24.30;14.40;;;;;;;20.06;100.00;99679.61;104872;1271;73610;-66
2022/08/18 01:30:49;;;;;;;23.00;14.30;;;;;;;20.07;100.00;99683.15;104870;1271;61278;-68
2022/08/18 01:33:42;;;;;;;24.30;14.30;;;;;;;20.06;100.00;99679.09;104835;1271;61852;-68
2022/08/18 01:36:36;;;;;;;26.40;14.80;;;;;;;20.07;100.00;99676.63;104995;1271;71654;-66
2022/08/18 01:39:25;;;;;;;26.00;14.70;;;;;;;20.08;100.00;99672.91;104716;1273;68556;-69
2022/08/18 01:42:34;;;;;;;26.90;15.10;;;;;;;20.09;100.00;99668.32;105049;1271;74385;-66
2022/08/18 01:45:22;;;;;;;24.50;14.60;;;;;;;20.11;100.00;99669.73;105108;1271;60732;-66
2022/08/18 01:48:11;;;;;;;23.40;14.00;;;;;;;20.12;100.00;99667.71;104886;1271;59413;-66
2022/08/18 01:51:06;;;;;;;25.70;14.80;;;;;;;20.10;100.00;99664.55;105062;1271;73062;-66
2022/08/18 01:53:55;;;;;;;25.30;14.40;;;;;;;20.10;100.00;99660.80;104777;1271;68595;-66
2022/08/18 01:56:43;;;;;;;24.90;14.50;;;;;;;20.11;100.00;99665.16;104918;1271;73943;-66
2022/08/18 01:59:31;;;;;;;24.50;13.80;;;;;;;20.12;100.00;99658.77;104011;1271;1400999;-65
2022/08/18 02:02:25;;;;;;;23.20;13.20;;;;;;;20.13;100.00;99657.38;104865;1271;61838;-65
2022/08/18 02:05:23;;;;;;;25.40;14.50;;;;;;;20.13;100.00;99655.17;104940;1271;72974;-65
2022/08/18 02:08:12;;;;;;;23.90;14.20;;;;;;;20.14;100.00;99659.05;104813;1271;68382;-65
2022/08/18 02:11:02;;;;;;;21.10;13.50;;;;;;;20.13;100.00;99665.67;104979;1271;72924;-65
2022/08/18 02:13:50;;;;;;;25.10;13.90;;;;;;;20.12;100.00;99667.79;105009;1271;59525;-64
2022/08/18 02:16:38;;;;;;;23.50;13.20;;;;;;;20.11;100.00;99666.29;105096;1271;60511;-64
2022/08/18 02:19:26;;;;;;;20.30;13.40;;;;;;;20.12;100.00;99665.02;104861;1270;73891;-65
2022/08/18 02:22:19;;;;;;;21.80;12.00;;;;;;;20.14;100.00;99670.89;104916;1271;69550;-66
2022/08/18 02:25:08;;;;;;;20.80;12.30;;;;;;;20.14;100.00;99667.40;104871;1271;72710;-64
2022/08/18 02:27:57;;;;;;;18.90;11.50;;;;;;;20.12;100.00;99664.55;105093;1271;59532;-66
2022/08/18 02:30:45;;;;;;;18.40;11.90;;;;;;;20.09;100.00;99664.52;104960;1271;60996;-64
2022/08/18 02:33:33;;;;;;;19.40;12.20;;;;;;;20.06;100.00;99660.59;105000;1271;72594;-64
2022/08/18 02:36:22;;;;;;;22.30;12.40;;;;;;;20.05;100.00;99662.61;104852;1271;69585;-65
2022/08/18 02:39:12;;;;;;;19.70;12.10;;;;;;;20.05;100.00;99661.82;104853;1271;73256;-67
2022/08/18 02:42:00;;;;;;;21.80;12.30;;;;;;;20.05;100.00;99660.15;104992;1271;59906;-65
2022/08/18 02:44:48;;;;;;;19.10;11.80;;;;;;;20.05;100.00;99659.96;104844;1271;60547;-65
2022/08/18 02:47:37;;;;;;;18.90;12.20;;;;;;;20.05;100.00;99658.20;105120;1271;72936;-66
2022/08/18 02:50:25;;;;;;;18.90;12.20;;;;;;;20.03;100.00;99653.29;104909;1271;67566;-66
2022/08/18 02:53:20;;;;;;;18.30;11.10;;;;;;;20.03;100.00;99654.81;104864;1271;74269;-65
2022/08/18 02:56:28;;;;;;;19.30;11.80;;;;;;;20.03;100.00;99655.73;105047;1271;59998;-66
2022/08/18 02:59:30;;;;;;;19.80;11.70;;;;;;;20.01;100.00;99653.84;104948;1271;62028;-65
2022/08/18 03:02:21;;;;;;;20.50;12.00;;;;;;;19.99;100.00;99648.42;105031;1271;73014;-68
2022/08/18 03:05:09;;;;;;;20.50;11.10;;;;;;;19.97;100.00;99648.14;105049;1271;67409;-64
2022/08/18 03:08:01;;;;;;;17.70;10.60;;;;;;;19.95;100.00;99650.04;104896;1271;73385;-66
2022/08/18 03:10:51;;;;;;;19.40;12.10;;;;;;;19.94;100.00;99657.58;104927;1271;59289;-65
2022/08/18 03:13:39;;;;;;;18.40;11.30;;;;;;;19.91;100.00;99657.35;104908;1271;59432;-67
2022/08/18 03:16:31;;;;;;;16.90;10.60;;;;;;;19.89;100.00;99661.55;104825;1271;72118;-66
2022/08/18 03:19:24;;;;;;;17.90;10.80;;;;;;;19.84;100.00;99662.66;105097;1271;67903;-66
2022/08/18 03:22:13;;;;;;;16.40;10.70;;;;;;;19.82;100.00;99666.95;104735;1271;73394;-64
2022/08/18 03:25:16;;;;;;;18.90;10.80;;;;;;;19.80;100.00;99675.52;104861;1270;59347;-65
2022/08/18 03:28:05;;;;;;;17.70;11.00;;;;;;;19.78;100.00;99675.69;104982;1271;59660;-64
2022/08/18 03:30:54;;;;;;;17.90;11.80;;;;;;;19.78;100.00;99671.58;104939;1271;73713;-65
2022/08/18 03:33:44;;;;;;;19.60;11.40;;;;;;;19.77;100.00;99670.90;104855;1271;69462;-68
2022/08/18 03:36:34;;;;;;;21.00;12.20;;;;;;;19.76;100.00;99668.59;104758;1271;72672;-68
2022/08/18 03:39:22;;;;;;;21.40;12.20;;;;;;;19.76;100.00;99669.44;104799;1274;59839;-66
2022/08/18 03:42:10;;;;;;;21.10;12.50;;;;;;;19.78;100.00;99670.86;104830;1271;59647;-67
2022/08/18 03:44:58;;;;;;;19.90;11.70;;;;;;;19.80;100.00;99671.54;104883;1271;73086;-68
2022/08/18 03:47:46;;;;;;;20.90;11.80;;;;;;;19.81;100.00;99672.96;104928;1271;68416;-65
2022/08/18 03:50:34;;;;;;;20.70;12.10;;;;;;;19.83;100.00;99672.41;104935;1269;74414;-64
2022/08/18 03:53:22;;;;;;;20.00;10.90;;;;;;;19.86;100.00;99674.36;105062;1271;59990;-63
2022/08/18 03:56:19;;;;;;;18.80;11.40;;;;;;;19.91;100.00;99677.33;105013;1271;59380;-64
2022/08/18 03:59:13;;;;;;;19.60;12.60;;;;;;;19.92;100.00;99683.23;104873;1271;72645;-66
2022/08/18 04:02:03;;;;;;;18.90;11.70;;;;;;;19.95;100.00;99683.58;104588;1271;67370;-63
2022/08/18 04:04:52;;;;;;;18.50;11.20;;;;;;;19.99;100.00;99684.52;105100;1271;74399;-64
2022/08/18 04:07:41;;;;;;;16.90;11.00;;;;;;;20.03;100.00;99692.45;105028;1271;59426;-64
2022/08/18 04:10:30;;;;;;;18.80;11.90;;;;;;;20.06;100.00;99684.67;104786;1271;59376;-68
2022/08/18 04:13:18;;;;;;;17.40;11.40;;;;;;;20.10;100.00;99685.64;104841;1271;73873;-64
2022/08/18 04:16:07;;;;;;;20.10;11.50;;;;;;;20.12;100.00;99692.48;104920;1271;68628;-64
2022/08/18 04:19:00;;;;;;;17.50;11.60;;;;;;;20.13;100.00;99695.96;104772;1271;72577;-66
2022/08/18 04:21:52;;;;;;;20.10;11.30;;;;;;;20.16;100.00;99691.53;105079;1271;59375;-66
2022/08/18 04:24:41;;;;;;;16.00;10.50;;;;;;;20.18;100.00;99690.63;104738;1274;62063;-66
2022/08/18 04:27:32;;;;;;;18.50;12.00;;;;;;;20.20;100.00;99693.98;105381;1271;71907;-69
2022/08/18 04:30:20;;;;;;;19.50;12.10;;;;;;;20.24;100.00;99689.33;105082;1271;68612;-67
2022/08/18 04:33:08;;;;;;;18.90;12.30;;;;;;;20.28;100.00;99693.11;104902;1270;73339;-68
2022/08/18 04:35:56;;;;;;;22.60;13.20;;;;;;;20.34;100.00;99693.64;104626;1271;59810;-67
2022/08/18 04:38:44;;;;;;;28.10;14.80;;;;;;;20.42;100.00;99698.29;104887;1271;60804;-70
2022/08/18 04:41:32;;;;;;;29.70;15.70;;;;;;;20.46;100.00;99700.65;104764;1271;74662;-69
2022/08/18 04:44:20;;;;;;;39.80;20.00;;;;;;;20.52;100.00;99702.17;105579;1271;69623;-69
2022/08/18 04:47:09;;;;;;;37.50;19.80;;;;;;;20.62;100.00;99705.33;105592;1271;72847;-69
2022/08/18 04:49:57;;;;;;;45.30;22.20;;;;;;;20.68;100.00;99712.27;104897;1271;59425;-67
2022/08/18 04:55:54;;;;;;;50.80;24.30;;;;;;;20.81;100.00;99711.65;105098;1271;71771;-68
2022/08/18 04:58:42;;;;;;;54.10;25.10;;;;;;;20.91;100.00;99712.64;105215;1271;68077;-69
2022/08/18 05:01:39;;;;;;;50.80;24.50;;;;;;;21.04;100.00;99714.83;104988;1271;72437;-66
2022/08/18 05:04:29;;;;;;;52.90;27.30;;;;;;;21.16;100.00;99708.56;104839;1271;59806;-67
2022/08/18 05:07:24;;;;;;;51.60;25.80;;;;;;;21.30;100.00;99707.77;104841;1271;59393;-67
2022/08/18 05:10:16;;;;;;;50.50;26.40;;;;;;;21.45;100.00;99707.95;104705;1271;71185;-69
2022/08/18 05:13:05;;;;;;;47.90;26.20;;;;;;;21.61;100.00;99711.73;104818;1271;67235;-67
2022/08/18 05:15:56;;;;;;;50.40;29.30;;;;;;;21.74;100.00;99709.84;104802;1271;71822;-69
2022/08/18 05:18:58;;;;;;;47.30;25.50;;;;;;;21.92;100.00;99709.38;104918;1271;61179;-67
2022/08/18 05:21:50;;;;;;;45.30;26.30;;;;;;;22.08;100.00;99713.81;104819;1271;61006;-67
2022/08/18 05:24:38;;;;;;;42.70;23.50;;;;;;;22.18;100.00;99716.85;104882;1271;72340;-70
2022/08/18 05:27:34;;;;;;;48.00;25.80;;;;;;;22.27;100.00;99715.50;104874;1271;68718;-68
2022/08/18 05:30:22;;;;;;;48.60;25.50;;;;;;;22.41;100.00;99713.34;104781;1271;73210;-70
2022/08/18 05:33:10;;;;;;;44.70;26.70;;;;;;;22.54;100.00;99715.63;104806;1271;59387;-68
2022/08/18 05:36:11;;;;;;;48.30;26.70;;;;;;;22.61;99.56;99709.05;105093;1271;61140;-68
2022/08/18 05:39:16;;;;;;;42.40;25.90;;;;;;;22.55;97.93;99708.86;105162;1271;73810;-71
2022/08/18 05:42:18;;;;;;;42.10;25.50;;;;;;;22.64;98.42;99709.18;105578;1271;69873;-68
2022/08/18 05:45:14;;;;;;;39.50;24.00;;;;;;;22.75;96.78;99707.80;104718;1271;73312;-68
2022/08/18 05:48:03;;;;;;;34.50;23.00;;;;;;;22.86;95.97;99706.64;104862;1271;59657;-70
2022/08/18 05:50:51;;;;;;;33.50;21.80;;;;;;;23.14;95.19;99704.19;106512;1271;61977;-67
2022/08/18 05:56:51;;;;;;;31.50;20.90;;;;;;;23.82;89.98;99707.59;105660;1271;67527;-73
2022/08/18 05:59:41;;;;;;;31.40;20.90;;;;;;;24.17;88.44;99700.34;105041;1271;73457;-73
2022/08/18 06:02:50;;;;;;;27.60;19.90;;;;;;;24.47;85.80;99699.36;104829;1271;59403;-72
2022/08/18 06:06:00;;;;;;;25.90;19.30;;;;;;;24.73;85.31;99702.64;105165;1271;60268;-73
2022/08/18 06:09:21;;;;;;;31.00;20.30;;;;;;;25.09;83.98;99704.60;105029;1274;73047;-73
2022/08/18 06:12:42;;;;;;;29.50;19.50;;;;;;;25.39;81.61;99703.66;104794;1271;69469;-72
2022/08/18 06:15:52;;;;;;;30.90;21.40;;;;;;;25.62;80.20;99708.52;104864;1274;73054;-74
2022/08/18 06:19:01;;;;;;;28.70;20.20;;;;;;;25.85;79.57;99708.75;104987;1274;59759;-74
2022/08/18 06:22:16;;;;;;;31.40;23.20;;;;;;;26.11;76.76;99716.85;104941;1274;60485;-72
2022/08/18 06:25:19;;;;;;;31.50;21.90;;;;;;;26.14;74.58;99709.68;104700;1273;73874;-73
2022/08/18 06:28:14;;;;;;;30.30;20.80;;;;;;;26.25;75.90;99710.49;104753;1274;69267;-74
2022/08/18 06:31:11;;;;;;;29.20;20.50;;;;;;;26.42;75.89;99712.45;104862;1274;73103;-72
2022/08/18 06:34:23;;;;;;;31.30;20.50;;;;;;;26.60;74.65;99718.88;104685;1274;59432;-73
2022/08/18 06:37:28;;;;;;;29.30;19.90;;;;;;;26.70;72.30;99714.52;104936;1274;60481;-73
2022/08/18 06:40:17;;;;;;;28.90;19.50;;;;;;;26.89;72.19;99711.11;104945;1274;71634;-72
2022/08/18 06:43:12;;;;;;;28.70;19.70;;;;;;;27.08;71.10;99715.83;104736;1274;67559;-73
2022/08/18 06:46:02;;;;;;;22.50;17.60;;;;;;;27.34;69.93;99720.04;104861;1274;73234;-72
2022/08/18 06:48:54;;;;;;;24.20;17.20;;;;;;;27.41;67.78;99721.30;104758;1274;59288;-75
2022/08/18 06:51:41;;;;;;;23.80;16.90;;;;;;;27.46;66.45;99721.30;104688;1274;59302;-72
2022/08/18 06:54:30;;;;;;;22.10;15.20;;;;;;;27.48;67.17;99723.96;104866;1274;73476;-74
2022/08/18 06:57:33;;;;;;;21.10;14.90;;;;;;;27.59;66.49;99725.73;104715;1274;67484;-73
2022/08/18 07:00:26;;;;;;;21.20;15.50;;;;;;;27.69;65.59;99724.98;104861;1274;73418;-73
2022/08/18 07:03:22;;;;;;;21.00;15.40;;;;;;;27.80;64.93;99726.95;104657;1274;59412;-75
2022/08/18 07:06:20;;;;;;;20.40;14.60;;;;;;;28.05;64.47;99728.37;104625;1273;62035;-74
2022/08/18 07:09:32;;;;;;;23.20;15.20;;;;;;;28.21;62.84;99724.13;104735;1273;72803;-71
2022/08/18 07:12:26;;;;;;;24.70;16.10;;;;;;;28.41;62.69;99714.83;104804;1273;68444;-72
2022/08/18 07:15:23;;;;;;;20.90;13.60;;;;;;;28.76;62.67;99720.05;104708;1274;74384;-76
2022/08/18 07:18:16;;;;;;;18.50;13.10;;;;;;;29.32;62.18;99716.63;105769;1271;59330;-72
2022/08/18 07:21:04;;;;;;;21.30;13.00;;;;;;;29.90;60.02;99715.77;105028;1272;60870;-73
2022/08/18 07:24:26;;;;;;;16.30;11.20;;;;;;;30.34;57.34;99710.57;105393;1274;72930;-71
2022/08/18 07:27:19;;;;;;;18.40;12.40;;;;;;;30.40;54.14;99711.63;105301;1271;67553;-73
2022/08/18 07:30:25;;;;;;;18.30;13.10;;;;;;;30.49;53.71;99711.40;104895;1271;73252;-74
2022/08/18 07:33:22;;;;;;;18.30;12.40;;;;;;;30.43;54.18;99711.91;104927;1271;59392;-71
2022/08/18 07:36:13;;;;;;;20.60;13.00;;;;;;;30.57;53.88;99714.16;105008;1271;60635;-73
2022/08/18 07:39:22;;;;;;;18.10;12.90;;;;;;;30.68;53.36;99711.61;104794;1271;73861;-74
2022/08/18 07:42:28;;;;;;;19.00;12.30;;;;;;;30.86;53.32;99712.20;104693;1271;68535;-72
2022/08/18 07:45:44;;;;;;;18.00;11.30;;;;;;;31.38;52.76;99715.71;104927;1271;72071;-74
2022/08/18 07:48:33;;;;;;;16.00;11.40;;;;;;;31.65;50.98;99712.98;104740;1271;59425;-71
2022/08/18 07:51:42;;;;;;;22.20;13.60;;;;;;;31.77;49.06;99714.73;104958;1271;62031;-73
2022/08/18 07:54:58;;;;;;;21.00;12.50;;;;;;;31.84;49.62;99714.50;105167;1271;73940;-74
2022/08/18 07:58:09;;;;;;;18.90;12.20;;;;;;;32.04;48.19;99713.79;104806;1271;69399;-74
2022/08/18 08:01:18;;;;;;;19.30;11.50;;;;;;;32.03;47.82;99709.71;104833;1271;73476;-72
2022/08/18 08:04:55;;;;;;;18.40;13.40;;;;;;;32.62;48.44;99706.45;104846;1271;59186;-73
2022/08/18 08:08:00;;;;;;;14.50;10.50;;;;;;;33.44;46.01;99703.36;106647;1271;60564;-74
2022/08/18 08:11:04;;;;;;;19.10;11.20;;;;;;;33.96;43.98;99704.73;104660;1274;72261;-74
2022/08/18 08:14:01;;;;;;;19.10;11.60;;;;;;;34.42;43.34;99700.77;105280;1271;66817;-76
2022/08/18 08:17:22;;;;;;;16.20;9.30;;;;;;;34.91;41.83;99699.14;104872;1271;73319;-73
2022/08/18 08:20:42;;;;;;;16.50;9.50;;;;;;;34.99;40.83;99701.82;105079;1271;59229;-72
2022/08/18 08:23:59;;;;;;;15.80;10.10;;;;;;;35.34;39.84;99708.63;105106;1271;60655;-74
2022/08/18 08:27:33;;;;;;;14.90;9.60;;;;;;;35.40;39.49;99712.94;105184;1271;74016;-73
2022/08/18 08:30:26;;;;;;;16.00;8.70;;;;;;;35.85;38.61;99716.35;105423;1271;67932;-78
2022/08/18 08:33:30;;;;;;;18.30;9.20;;;;;;;36.28;37.44;99710.95;105632;1271;74480;-81
2022/08/18 08:36:33;;;;;;;18.20;9.50;;;;;;;36.79;37.09;99708.34;105582;1271;59315;-81
2022/08/18 08:39:32;;;;;;;24.40;18.20;;;;;;;37.26;35.69;99702.93;105508;1271;61074;-81
2022/08/18 08:42:39;;;;;;;17.00;8.70;;;;;;;37.65;34.46;99702.88;106338;1271;70980;-82
2022/08/18 08:45:47;;;;;;;14.90;8.00;;;;;;;37.85;33.72;99700.00;106039;1271;68634;-81
2022/08/18 08:49:04;;;;;;;17.90;7.20;;;;;;;37.90;32.56;99701.84;105838;1271;74382;-82
2022/08/18 08:52:02;;;;;;;15.90;7.00;;;;;;;37.94;32.42;99698.03;105487;1271;59302;-81
2022/08/18 08:54:59;;;;;;;13.60;7.40;;;;;;;37.96;32.36;99693.70;105030;1274;59574;-82
2022/08/18 08:58:08;;;;;;;11.80;7.30;;;;;;;37.53;32.39;99691.04;105267;1271;71004;-81
2022/08/18 09:00:57;;;;;;;15.70;8.00;;;;;;;37.40;33.44;99689.87;105252;1271;68593;-81
2022/08/18 09:04:20;;;;;;;13.70;7.00;;;;;;;37.83;33.32;99687.95;105220;1271;74818;-82
2022/08/18 09:07:30;;;;;;;13.90;7.00;;;;;;;38.44;32.48;99683.11;105492;1271;59673;-82
2022/08/18 09:11:05;;;;;;;16.40;7.80;;;;;;;38.97;31.91;99686.46;105589;1271;61051;-81
2022/08/18 09:14:36;;;;;;;13.80;7.10;;;;;;;39.55;30.78;99690.42;105232;1271;71611;-82
2022/08/18 09:17:52;;;;;;;11.30;7.00;;;;;;;39.86;30.42;99689.66;105371;1271;68064;-86
2022/08/18 09:20:55;;;;;;;15.10;6.80;;;;;;;40.23;30.18;99688.35;105597;1270;72897;-83
2022/08/18 09:23:50;;;;;;;14.60;7.70;;;;;;;40.45;29.67;99690.93;105181;1271;59284;-75
2022/08/18 09:26:41;;;;;;;14.70;9.40;;;;;;;39.69;29.69;99683.65;105135;1271;59544;-74
2022/08/18 09:29:44;;;;;;;12.60;7.60;;;;;;;39.04;31.47;99677.90;105067;1271;73165;-75
2022/08/18 09:32:54;;;;;;;14.00;8.10;;;;;;;38.68;32.41;99675.74;105411;1271;68357;-75
2022/08/18 09:36:22;;;;;;;13.50;7.10;;;;;;;38.48;32.82;99678.30;104957;1271;73207;-74
2022/08/18 09:43:05;;;;;;;16.10;7.30;;;;;;;38.03;33.45;99677.84;104915;1271;59382;-75
2022/08/18 09:45:59;;;;;;;16.10;8.50;;;;;;;38.04;32.88;99670.55;105436;1271;72883;-75
2022/08/18 09:48:47;;;;;;;12.30;8.00;;;;;;;37.77;32.95;99669.70;104914;1271;66791;-75
2022/08/18 09:51:36;;;;;;;12.00;6.30;;;;;;;37.88;33.39;99668.30;104797;1271;74255;-76
2022/08/18 09:54:31;;;;;;;14.40;8.20;;;;;;;37.71;32.88;99665.41;104859;1272;59307;-75
2022/08/18 09:57:32;;;;;;;14.70;8.20;;;;;;;37.81;32.81;99664.50;104878;1271;62290;-75
2022/08/18 10:00:30;;;;;;;13.90;6.50;;;;;;;38.04;33.05;99667.44;105085;1271;72206;-74
2022/08/18 10:03:24;;;;;;;17.90;8.30;;;;;;;38.11;32.48;99674.98;104882;1271;67421;-74
2022/08/18 10:06:18;;;;;;;13.90;7.10;;;;;;;38.06;32.75;99673.52;104903;1271;72543;-73
2022/08/18 10:09:42;;;;;;;13.80;7.70;;;;;;;37.79;33.50;99671.88;105063;1271;59420;-74
2022/08/18 10:12:55;;;;;;;17.50;8.80;;;;;;;37.50;33.73;99670.87;105111;1271;60462;-75
2022/08/18 10:16:14;;;;;;;16.70;8.30;;;;;;;37.41;34.31;99673.41;104868;1271;73033;-74
2022/08/18 10:19:32;;;;;;;14.20;8.40;;;;;;;37.18;33.84;99670.02;104910;1271;69964;-74
2022/08/18 10:22:45;;;;;;;14.10;8.50;;;;;;;37.31;34.17;99674.15;104798;1271;72669;-75
2022/08/18 10:25:41;;;;;;;13.70;7.70;;;;;;;37.92;33.74;99676.96;104964;1271;59349;-75
2022/08/18 10:29:24;;;;;;;17.10;8.30;;;;;;;38.31;32.78;99672.50;104894;1271;59288;-75
2022/08/18 10:32:12;;;;;;;16.10;8.00;;;;;;;38.47;32.42;99668.27;104392;1281;72466;-75
2022/08/18 10:35:01;;;;;;;14.30;8.20;;;;;;;38.36;32.13;99669.35;104195;1279;69414;-74
2022/08/18 10:37:52;;;;;;;17.00;8.70;;;;;;;38.32;32.90;99667.58;104145;1281;72112;-75
2022/08/18 10:40:57;;;;;;;13.90;9.10;;;;;;;38.21;32.68;99662.98;104218;1281;59725;-73
2022/08/18 10:43:48;;;;;;;11.90;7.10;;;;;;;38.52;32.51;99664.58;104207;1281;62136;-77
2022/08/18 10:46:48;;;;;;;17.70;9.30;;;;;;;38.82;31.93;99666.75;104213;1279;73063;-73
2022/08/18 10:49:37;;;;;;;14.20;7.70;;;;;;;39.07;31.64;99665.30;104198;1281;66849;-78
2022/08/18 10:52:42;;;;;;;16.50;8.40;;;;;;;38.72;31.17;99667.06;104408;1281;73880;-75
2022/08/18 10:56:10;;;;;;;12.40;7.60;;;;;;;38.93;31.32;99665.49;104685;1280;59258;-75
2022/08/18 10:59:36;;;;;;;12.30;7.50;;;;;;;38.81;30.98;99661.61;104838;1281;60562;-73
2022/08/18 11:03:18;;;;;;;14.50;7.80;;;;;;;38.57;31.06;99660.79;104369;1281;72368;-75
2022/08/18 11:06:27;;;;;;;13.30;7.70;;;;;;;38.71;31.89;99654.34;104700;1274;68150;-74
2022/08/18 11:09:27;;;;;;;13.30;8.00;;;;;;;38.65;32.23;99652.70;104788;1272;74858;-75
2022/08/18 11:12:38;;;;;;;13.70;7.60;;;;;;;38.13;32.65;99650.02;104756;1271;59378;-74
2022/08/18 11:15:54;;;;;;;14.50;9.20;;;;;;;37.53;33.44;99652.09;104817;1271;59310;-73
2022/08/18 11:18:48;;;;;;;12.40;7.70;;;;;;;36.88;35.07;99644.45;104961;1271;72169;-73
2022/08/18 11:21:42;;;;;;;16.10;8.40;;;;;;;36.75;35.03;99646.54;104797;1271;66517;-73
2022/08/18 11:24:34;;;;;;;17.80;10.10;;;;;;;36.64;35.64;99648.55;104879;1271;74423;-77
2022/08/18 11:27:29;;;;;;;18.60;8.90;;;;;;;36.40;36.39;99647.18;104847;1271;59278;-74
2022/08/18 11:30:18;;;;;;;18.90;10.00;;;;;;;36.22;36.53;99642.52;104983;1271;61040;-74
2022/08/18 11:33:06;;;;;;;15.00;9.10;;;;;;;35.89;36.95;99644.01;104975;1271;72504;-74
2022/08/18 11:35:58;;;;;;;24.00;14.00;;;;;;;35.48;37.36;99646.61;104925;1271;66815;-76
2022/08/18 11:39:12;;;;;;;27.60;13.50;;;;;;;35.21;38.65;99641.66;104920;1271;74779;-74
2022/08/18 11:42:02;;;;;;;18.50;11.90;;;;;;;35.05;39.25;99637.20;104973;1271;59356;-73
2022/08/18 11:44:50;;;;;;;15.60;9.40;;;;;;;35.01;39.38;99635.04;104783;1274;59404;-76
2022/08/18 11:47:59;;;;;;;18.40;12.40;;;;;;;34.99;39.76;99639.09;105465;1271;74057;-78
2022/08/18 11:50:58;;;;;;;17.30;11.20;;;;;;;34.84;39.94;99633.38;105135;1271;69986;-76
2022/08/18 11:53:47;;;;;;;17.80;12.60;;;;;;;34.78;39.63;99632.09;105374;1271;74402;-75
2022/08/18 11:56:43;;;;;;;14.60;9.90;;;;;;;34.82;39.96;99635.05;105359;1271;59705;-76
2022/08/18 11:59:31;;;;;;;18.90;11.20;;;;;;;34.88;39.66;99634.11;105290;1271;59317;-75
2022/08/18 12:02:40;;;;;;;20.70;14.80;;;;;;;34.55;39.77;99629.48;105147;1271;73119;-71
2022/08/18 12:05:43;;;;;;;21.30;14.30;;;;;;;34.03;41.05;99629.90;104836;1271;69578;-71
2022/08/18 12:09:17;;;;;;;17.40;12.40;;;;;;;33.43;42.41;99626.10;105045;1271;73563;-73
2022/08/18 12:12:31;;;;;;;18.20;11.80;;;;;;;32.87;43.95;99621.95;105116;1271;59874;-73
2022/08/18 12:15:34;;;;;;;14.70;9.30;;;;;;;32.61;44.81;99616.73;105096;1271;61078;-72
2022/08/18 12:18:42;;;;;;;17.20;10.30;;;;;;;32.32;45.17;99610.77;105492;1271;73232;-75
2022/08/18 12:21:31;;;;;;;16.60;10.30;;;;;;;32.05;45.42;99613.48;105187;1271;68977;-74
2022/08/18 12:24:30;;;;;;;14.90;9.20;;;;;;;31.76;46.24;99608.02;105095;1271;74731;-73
2022/08/18 12:27:40;;;;;;;15.20;10.50;;;;;;;31.45;46.58;99603.70;105253;1271;59297;-73
2022/08/18 12:30:30;;;;;;;14.80;9.60;;;;;;;31.39;47.24;99607.33;104996;1271;60634;-76
2022/08/18 12:33:18;;;;;;;15.90;10.50;;;;;;;31.28;47.43;99609.70;105110;1271;72500;-73
2022/08/18 12:36:12;;;;;;;17.40;11.40;;;;;;;31.15;47.48;99610.17;105093;1271;68289;-73
2022/08/18 12:39:03;;;;;;;17.80;9.90;;;;;;;31.02;47.94;99612.35;105067;1271;72927;-75
2022/08/18 12:41:52;;;;;;;18.70;10.60;;;;;;;30.97;48.22;99612.41;105075;1271;59403;-75
2022/08/18 12:44:40;;;;;;;15.30;9.90;;;;;;;30.91;48.40;99612.55;105378;1271;62081;-74
2022/08/18 12:47:30;;;;;;;14.80;9.90;;;;;;;30.77;48.43;99611.30;105303;1271;72500;-76
2022/08/18 12:50:19;;;;;;;16.50;10.80;;;;;;;30.57;48.79;99613.95;105073;1271;67278;-72
2022/08/18 12:53:18;;;;;;;17.20;9.40;;;;;;;30.42;49.04;99614.65;105351;1271;74859;-74
2022/08/18 12:56:30;;;;;;;16.50;9.20;;;;;;;30.18;49.85;99610.96;105006;1271;59426;-73
2022/08/18 12:59:18;;;;;;;16.90;10.40;;;;;;;30.07;50.25;99607.73;105158;1274;60716;-73
2022/08/18 13:02:08;;;;;;;15.70;9.90;;;;;;;30.03;50.07;99603.96;105083;1271;73998;-72
2022/08/18 13:04:58;;;;;;;15.50;10.80;;;;;;;29.97;50.32;99603.25;105044;1271;66120;-72
2022/08/18 13:07:46;;;;;;;17.00;11.00;;;;;;;29.84;50.62;99597.94;105204;1271;72866;-74
2022/08/18 13:10:36;;;;;;;15.30;10.50;;;;;;;29.78;51.10;99600.01;105169;1271;59407;-73
2022/08/18 13:13:33;;;;;;;16.20;9.70;;;;;;;29.75;51.01;99602.16;105008;1271;61951;-74
2022/08/18 13:16:25;;;;;;;15.00;10.10;;;;;;;29.62;51.07;99602.35;105008;1271;71936;-73
2022/08/18 13:19:33;;;;;;;16.50;9.50;;;;;;;29.47;51.78;99601.63;105248;1271;68155;-74
2022/08/18 13:22:22;;;;;;;18.20;9.30;;;;;;;29.43;51.75;99603.77;105080;1271;72950;-73
2022/08/18 13:25:20;;;;;;;14.20;9.00;;;;;;;29.31;52.08;99606.58;104994;1271;59271;-73
2022/08/18 13:28:27;;;;;;;13.90;8.50;;;;;;;29.15;52.00;99605.25;105098;1271;60464;-73
2022/08/18 13:31:17;;;;;;;16.20;8.70;;;;;;;29.07;52.01;99607.33;105053;1271;72908;-75
2022/08/18 13:34:08;;;;;;;15.90;10.10;;;;;;;29.03;52.32;99606.29;105001;1271;66853;-72
2022/08/18 13:37:02;;;;;;;14.70;8.80;;;;;;;29.03;52.54;99602.13;105167;1271;73819;-72
2022/08/18 13:39:50;;;;;;;16.70;9.00;;;;;;;29.10;52.37;99604.18;105072;1271;59642;-72
2022/08/18 13:42:47;;;;;;;12.10;8.50;;;;;;;29.14;51.74;99609.17;105264;1271;59505;-72
2022/08/18 13:45:48;;;;;;;15.50;8.90;;;;;;;29.14;52.28;99608.03;105196;1271;72404;-71